Airfield :







YOU CAN JOIN US ON...

 
LOGIN :

Register | Disclaimer

   EN    FR    IT 

 









Legend :    VFR   Marginal VFR   IFR   Intensive IFR   Very Intensive IFR
Visi :
Ceiling :
>= 8 km
>= 3000ft
5 to 8 km
1000 to 3000 ft
1500m to 5 km
500 to 1000 ft
800 to 1500m
200 to 500 ft
< 800m
< 200 ft
Symbols :   Thunderstorms  Fog  Heavy snow  Heavy precipitations  Wind > 20 kt







- Airport Elevation : 348 ft


KFIT - Fitchburg Municipal

CURRENT METAR :
  • 160852Z AUTO 24006KT 10SM FEW120 18/14 A2989 RMK AO2 RAE03 SLP121 P0000 60000 T01830144 51003

EXPIRED METARs :
  • 160752Z AUTO VRB05KT 10SM -RA SCT120 18/14 A2989 RMK AO2 RAE24B45 SLP120 P0000 T01830139
  • 160652Z AUTO 26009G18KT 210V280 10SM -RA SCT120 19/13 A2989 RMK AO2 SLP121 P0000 T01940133

TAF N/A
KZBW FIR / North America



MET'MAP, your aeronautical weather chart ! - Copyright ORBIFLY December 2007 - Disclaimer

ORBIFLY MET'MAP TEAM :

Programming & Development : Alexandra Zaïnal
Concept & Development : Baudouin d'Aumeries
Co-Development & Prog : Marc-Olivier Méhu
Technical & hardware support : Manuel Goepfert

Contact : metmap@orbifly.com




SOURCES & CREDITS :

   NOAA